sensor_id;sensor_type;location;lat;lon;timestamp;temperature;humidity
77218;DHT22;66214;51.302;17.068;2023-03-14T00:01:13;10.46;67.92
77218;DHT22;66214;51.302;17.068;2023-03-14T00:03:43;10.45;67.53
77218;DHT22;66214;51.302;17.068;2023-03-14T00:06:09;10.45;67.56
77218;DHT22;66214;51.302;17.068;2023-03-14T00:08:37;10.44;67.66
77218;DHT22;66214;51.302;17.068;2023-03-14T00:11:08;10.46;67.61
77218;DHT22;66214;51.302;17.068;2023-03-14T00:13:40;10.48;67.46
77218;DHT22;66214;51.302;17.068;2023-03-14T00:16:09;10.50;67.28
77218;DHT22;66214;51.302;17.068;2023-03-14T00:18:38;10.54;67.29
77218;DHT22;66214;51.302;17.068;2023-03-14T00:21:06;10.57;66.80
77218;DHT22;66214;51.302;17.068;2023-03-14T00:23:35;10.66;66.36
77218;DHT22;66214;51.302;17.068;2023-03-14T00:26:08;10.77;65.61
77218;DHT22;66214;51.302;17.068;2023-03-14T00:28:38;10.89;65.85
77218;DHT22;66214;51.302;17.068;2023-03-14T00:31:06;10.94;65.96
77218;DHT22;66214;51.302;17.068;2023-03-14T00:33:35;11.00;65.82
77218;DHT22;66214;51.302;17.068;2023-03-14T00:36:06;11.03;65.62
77218;DHT22;66214;51.302;17.068;2023-03-14T00:38:44;11.05;65.46
77218;DHT22;66214;51.302;17.068;2023-03-14T00:41:14;11.06;65.30
77218;DHT22;66214;51.302;17.068;2023-03-14T00:43:44;11.08;65.19
77218;DHT22;66214;51.302;17.068;2023-03-14T00:46:11;11.11;65.10
77218;DHT22;66214;51.302;17.068;2023-03-14T00:51:08;11.18;64.11
77218;DHT22;66214;51.302;17.068;2023-03-14T00:53:37;11.24;63.34
77218;DHT22;66214;51.302;17.068;2023-03-14T00:56:07;11.31;62.79
77218;DHT22;66214;51.302;17.068;2023-03-14T00:58:38;11.34;62.39
77218;DHT22;66214;51.302;17.068;2023-03-14T01:01:08;11.34;62.44
77218;DHT22;66214;51.302;17.068;2023-03-14T01:03:41;11.31;62.83
77218;DHT22;66214;51.302;17.068;2023-03-14T01:06:13;11.24;63.17
77218;DHT22;66214;51.302;17.068;2023-03-14T01:08:44;11.15;63.75
77218;DHT22;66214;51.302;17.068;2023-03-14T01:11:14;11.06;64.18
77218;DHT22;66214;51.302;17.068;2023-03-14T01:13:48;10.94;64.72
77218;DHT22;66214;51.302;17.068;2023-03-14T01:16:17;10.82;65.26
77218;DHT22;66214;51.302;17.068;2023-03-14T01:22:06;10.68;66.75
77218;DHT22;66214;51.302;17.068;2023-03-14T01:24:36;10.64;66.95
77218;DHT22;66214;51.302;17.068;2023-03-14T01:27:09;10.59;66.90
77218;DHT22;66214;51.302;17.068;2023-03-14T01:29:37;10.56;66.96
77218;DHT22;66214;51.302;17.068;2023-03-14T01:32:05;10.51;67.00
77218;DHT22;66214;51.302;17.068;2023-03-14T01:34:33;10.47;67.12
77218;DHT22;66214;51.302;17.068;2023-03-14T01:37:01;10.42;67.21
77218;DHT22;66214;51.302;17.068;2023-03-14T01:39:29;10.37;67.55
77218;DHT22;66214;51.302;17.068;2023-03-14T01:41:57;10.31;67.83
77218;DHT22;66214;51.302;17.068;2023-03-14T01:44:26;10.24;68.02
77218;DHT22;66214;51.302;17.068;2023-03-14T01:46:54;10.18;68.27
77218;DHT22;66214;51.302;17.068;2023-03-14T01:52:02;10.09;69.67
77218;DHT22;66214;51.302;17.068;2023-03-14T01:54:42;10.06;70.14
77218;DHT22;66214;51.302;17.068;2023-03-14T01:57:19;10.05;70.17
77218;DHT22;66214;51.302;17.068;2023-03-14T01:59:54;10.02;70.13
77218;DHT22;66214;51.302;17.068;2023-03-14T02:02:29;9.98;70.24
77218;DHT22;66214;51.302;17.068;2023-03-14T02:04:58;9.92;70.40
77218;DHT22;66214;51.302;17.068;2023-03-14T02:10:01;9.80;70.56
77218;DHT22;66214;51.302;17.068;2023-03-14T02:12:34;9.74;70.65
77218;DHT22;66214;51.302;17.068;2023-03-14T02:15:05;9.67;70.77
77218;DHT22;66214;51.302;17.068;2023-03-14T02:17:34;9.62;71.18
77218;DHT22;66214;51.302;17.068;2023-03-14T02:20:11;9.57;71.55
77218;DHT22;66214;51.302;17.068;2023-03-14T02:22:42;9.55;71.70
77218;DHT22;66214;51.302;17.068;2023-03-14T02:25:16;9.55;71.91
77218;DHT22;66214;51.302;17.068;2023-03-14T02:27:52;9.55;71.83
77218;DHT22;66214;51.302;17.068;2023-03-14T02:30:25;9.56;71.71
77218;DHT22;66214;51.302;17.068;2023-03-14T02:33:07;9.55;71.58
77218;DHT22;66214;51.302;17.068;2023-03-14T02:35:46;9.55;71.54
77218;DHT22;66214;51.302;17.068;2023-03-14T02:39:24;9.55;71.50
77218;DHT22;66214;51.302;17.068;2023-03-14T02:41:20;9.55;71.43
77218;DHT22;66214;51.302;17.068;2023-03-14T02:48:16;9.51;71.45
77218;DHT22;66214;51.302;17.068;2023-03-14T02:50:47;9.53;71.72
77218;DHT22;66214;51.302;17.068;2023-03-14T02:53:20;9.54;71.90
77218;DHT22;66214;51.302;17.068;2023-03-14T02:56:02;9.55;72.07
77218;DHT22;66214;51.302;17.068;2023-03-14T02:58:32;9.55;71.95
77218;DHT22;66214;51.302;17.068;2023-03-14T03:00:59;9.55;71.82
77218;DHT22;66214;51.302;17.068;2023-03-14T03:03:28;9.54;71.74
77218;DHT22;66214;51.302;17.068;2023-03-14T03:10:15;9.48;71.58
77218;DHT22;66214;51.302;17.068;2023-03-14T03:12:44;9.46;71.45
77218;DHT22;66214;51.302;17.068;2023-03-14T03:15:12;9.45;71.31
77218;DHT22;66214;51.302;17.068;2023-03-14T03:17:39;9.48;71.14
77218;DHT22;66214;51.302;17.068;2023-03-14T03:20:08;9.52;71.07
77218;DHT22;66214;51.302;17.068;2023-03-14T03:22:37;9.54;71.24
77218;DHT22;66214;51.302;17.068;2023-03-14T03:25:06;9.56;71.61
77218;DHT22;66214;51.302;17.068;2023-03-14T03:27:36;9.57;71.76
77218;DHT22;66214;51.302;17.068;2023-03-14T03:30:05;9.56;71.69
77218;DHT22;66214;51.302;17.068;2023-03-14T03:32:35;9.54;71.55
77218;DHT22;66214;51.302;17.068;2023-03-14T03:35:03;9.51;71.29
77218;DHT22;66214;51.302;17.068;2023-03-14T03:37:32;9.49;71.15
77218;DHT22;66214;51.302;17.068;2023-03-14T03:40:01;9.47;70.96
77218;DHT22;66214;51.302;17.068;2023-03-14T03:42:39;9.48;70.71
77218;DHT22;66214;51.302;17.068;2023-03-14T03:45:08;9.48;70.49
77218;DHT22;66214;51.302;17.068;2023-03-14T03:47:36;9.51;70.28
77218;DHT22;66214;51.302;17.068;2023-03-14T03:50:04;9.54;70.05
77218;DHT22;66214;51.302;17.068;2023-03-14T03:52:33;9.59;69.87
77218;DHT22;66214;51.302;17.068;2023-03-14T03:55:01;9.63;69.78
77218;DHT22;66214;51.302;17.068;2023-03-14T03:57:29;9.67;69.86
77218;DHT22;66214;51.302;17.068;2023-03-14T03:59:57;9.69;69.92
77218;DHT22;66214;51.302;17.068;2023-03-14T04:02:25;9.73;69.70
77218;DHT22;66214;51.302;17.068;2023-03-14T04:04:53;9.79;69.28
77218;DHT22;66214;51.302;17.068;2023-03-14T04:07:21;9.84;69.04
77218;DHT22;66214;51.302;17.068;2023-03-14T04:09:49;9.85;68.98
77218;DHT22;66214;51.302;17.068;2023-03-14T04:12:17;9.88;68.93
77218;DHT22;66214;51.302;17.068;2023-03-14T04:14:45;9.89;68.87
77218;DHT22;66214;51.302;17.068;2023-03-14T04:17:13;9.91;68.49
77218;DHT22;66214;51.302;17.068;2023-03-14T04:19:41;9.93;68.26
77218;DHT22;66214;51.302;17.068;2023-03-14T04:22:09;10.02;67.85
77218;DHT22;66214;51.302;17.068;2023-03-14T04:24:38;10.08;67.72
77218;DHT22;66214;51.302;17.068;2023-03-14T04:27:11;10.12;67.58
77218;DHT22;66214;51.302;17.068;2023-03-14T04:29:38;10.16;67.00
77218;DHT22;66214;51.302;17.068;2023-03-14T04:32:07;10.23;66.95
77218;DHT22;66214;51.302;17.068;2023-03-14T04:34:35;10.23;66.91
77218;DHT22;66214;51.302;17.068;2023-03-14T04:37:03;10.22;66.87
77218;DHT22;66214;51.302;17.068;2023-03-14T04:39:31;10.20;66.98
77218;DHT22;66214;51.302;17.068;2023-03-14T04:41:59;10.19;66.86
77218;DHT22;66214;51.302;17.068;2023-03-14T04:44:27;10.16;66.94
77218;DHT22;66214;51.302;17.068;2023-03-14T04:46:55;10.14;66.98
77218;DHT22;66214;51.302;17.068;2023-03-14T04:49:23;10.11;67.06
77218;DHT22;66214;51.302;17.068;2023-03-14T04:51:51;10.12;67.09
77218;DHT22;66214;51.302;17.068;2023-03-14T04:54:19;10.14;67.31
77218;DHT22;66214;51.302;17.068;2023-03-14T04:56:47;10.16;67.31
77218;DHT22;66214;51.302;17.068;2023-03-14T04:59:15;10.19;67.25
77218;DHT22;66214;51.302;17.068;2023-03-14T05:01:43;10.21;67.31
77218;DHT22;66214;51.302;17.068;2023-03-14T05:04:10;10.21;67.47
77218;DHT22;66214;51.302;17.068;2023-03-14T05:06:38;10.20;67.56
77218;DHT22;66214;51.302;17.068;2023-03-14T05:09:07;10.18;67.52
77218;DHT22;66214;51.302;17.068;2023-03-14T05:15:13;10.19;67.65
77218;DHT22;66214;51.302;17.068;2023-03-14T05:17:41;10.16;67.62
77218;DHT22;66214;51.302;17.068;2023-03-14T05:20:09;10.14;67.40
77218;DHT22;66214;51.302;17.068;2023-03-14T05:22:41;10.16;67.20
77218;DHT22;66214;51.302;17.068;2023-03-14T05:25:09;10.18;67.16
77218;DHT22;66214;51.302;17.068;2023-03-14T05:27:37;10.21;66.99
77218;DHT22;66214;51.302;17.068;2023-03-14T05:30:09;10.25;67.05
77218;DHT22;66214;51.302;17.068;2023-03-14T05:32:38;10.27;67.10
77218;DHT22;66214;51.302;17.068;2023-03-14T05:35:06;10.29;67.13
77218;DHT22;66214;51.302;17.068;2023-03-14T05:37:35;10.28;67.34
77218;DHT22;66214;51.302;17.068;2023-03-14T05:40:03;10.29;67.67
77218;DHT22;66214;51.302;17.068;2023-03-14T05:42:33;10.30;67.93
77218;DHT22;66214;51.302;17.068;2023-03-14T05:45:01;10.30;68.17
77218;DHT22;66214;51.302;17.068;2023-03-14T05:47:29;10.31;68.25
77218;DHT22;66214;51.302;17.068;2023-03-14T05:49:57;10.30;68.18
77218;DHT22;66214;51.302;17.068;2023-03-14T05:52:25;10.30;67.91
77218;DHT22;66214;51.302;17.068;2023-03-14T05:54:54;10.33;67.67
77218;DHT22;66214;51.302;17.068;2023-03-14T05:59:55;10.36;67.73
77218;DHT22;66214;51.302;17.068;2023-03-14T06:02:23;10.38;67.78
77218;DHT22;66214;51.302;17.068;2023-03-14T06:04:51;10.42;67.84
77218;DHT22;66214;51.302;17.068;2023-03-14T06:07:20;10.43;68.03
77218;DHT22;66214;51.302;17.068;2023-03-14T06:09:48;10.44;68.15
77218;DHT22;66214;51.302;17.068;2023-03-14T06:12:16;10.44;68.29
77218;DHT22;66214;51.302;17.068;2023-03-14T06:14:44;10.45;68.46
77218;DHT22;66214;51.302;17.068;2023-03-14T06:17:12;10.44;68.58
77218;DHT22;66214;51.302;17.068;2023-03-14T06:19:40;10.46;68.67
77218;DHT22;66214;51.302;17.068;2023-03-14T06:22:09;10.49;68.83
77218;DHT22;66214;51.302;17.068;2023-03-14T06:24:37;10.56;69.06
77218;DHT22;66214;51.302;17.068;2023-03-14T06:27:05;10.61;69.29
77218;DHT22;66214;51.302;17.068;2023-03-14T06:29:33;10.68;69.52
77218;DHT22;66214;51.302;17.068;2023-03-14T06:32:04;10.74;69.54
77218;DHT22;66214;51.302;17.068;2023-03-14T06:34:34;10.81;69.31
77218;DHT22;66214;51.302;17.068;2023-03-14T06:37:09;10.87;69.22
77218;DHT22;66214;51.302;17.068;2023-03-14T06:39:40;10.93;69.03
77218;DHT22;66214;51.302;17.068;2023-03-14T06:42:13;10.96;68.86
77218;DHT22;66214;51.302;17.068;2023-03-14T06:44:48;10.98;68.83
77218;DHT22;66214;51.302;17.068;2023-03-14T06:47:16;11.01;68.87
77218;DHT22;66214;51.302;17.068;2023-03-14T06:49:44;11.05;68.89
77218;DHT22;66214;51.302;17.068;2023-03-14T06:52:15;11.09;68.81
77218;DHT22;66214;51.302;17.068;2023-03-14T06:54:46;11.14;68.83
77218;DHT22;66214;51.302;17.068;2023-03-14T06:57:48;11.20;68.86
77218;DHT22;66214;51.302;17.068;2023-03-14T07:00:45;11.24;68.62
77218;DHT22;66214;51.302;17.068;2023-03-14T07:03:18;11.28;68.69
77218;DHT22;66214;51.302;17.068;2023-03-14T07:05:47;11.31;68.60
77218;DHT22;66214;51.302;17.068;2023-03-14T07:08:15;11.34;68.66
77218;DHT22;66214;51.302;17.068;2023-03-14T07:10:45;11.36;68.77
77218;DHT22;66214;51.302;17.068;2023-03-14T07:16:04;11.46;69.37
77218;DHT22;66214;51.302;17.068;2023-03-14T07:21:06;11.55;69.06
77218;DHT22;66214;51.302;17.068;2023-03-14T07:26:41;11.65;69.16
77218;DHT22;66214;51.302;17.068;2023-03-14T07:29:15;11.69;69.05
77218;DHT22;66214;51.302;17.068;2023-03-14T07:31:45;11.70;68.79
77218;DHT22;66214;51.302;17.068;2023-03-14T07:34:14;11.70;68.61
77218;DHT22;66214;51.302;17.068;2023-03-14T07:36:49;11.68;68.17
77218;DHT22;66214;51.302;17.068;2023-03-14T07:39:23;11.65;68.07
77218;DHT22;66214;51.302;17.068;2023-03-14T07:42:00;11.64;67.96
77218;DHT22;66214;51.302;17.068;2023-03-14T07:44:29;11.63;67.96
77218;DHT22;66214;51.302;17.068;2023-03-14T07:46:58;11.64;68.05
77218;DHT22;66214;51.302;17.068;2023-03-14T07:52:56;11.64;67.69
77218;DHT22;66214;51.302;17.068;2023-03-14T07:56:08;11.59;67.80
77218;DHT22;66214;51.302;17.068;2023-03-14T07:58:52;11.58;67.98
77218;DHT22;66214;51.302;17.068;2023-03-14T08:01:20;11.60;68.40
77218;DHT22;66214;51.302;17.068;2023-03-14T08:03:48;11.60;68.57
77218;DHT22;66214;51.302;17.068;2023-03-14T08:06:16;11.61;68.59
77218;DHT22;66214;51.302;17.068;2023-03-14T08:08:47;11.61;68.45
77218;DHT22;66214;51.302;17.068;2023-03-14T08:13:54;11.57;67.57
77218;DHT22;66214;51.302;17.068;2023-03-14T08:16:29;11.51;67.01
77218;DHT22;66214;51.302;17.068;2023-03-14T08:19:40;11.43;66.48
77218;DHT22;66214;51.302;17.068;2023-03-14T08:22:23;11.38;66.41
77218;DHT22;66214;51.302;17.068;2023-03-14T08:25:11;11.34;66.40
77218;DHT22;66214;51.302;17.068;2023-03-14T08:27:47;11.31;66.59
77218;DHT22;66214;51.302;17.068;2023-03-14T08:30:56;11.28;66.89
77218;DHT22;66214;51.302;17.068;2023-03-14T08:36:00;11.20;67.32
77218;DHT22;66214;51.302;17.068;2023-03-14T08:38:28;11.19;67.55
77218;DHT22;66214;51.302;17.068;2023-03-14T08:40:57;11.20;67.85
77218;DHT22;66214;51.302;17.068;2023-03-14T08:43:29;11.22;68.05
77218;DHT22;66214;51.302;17.068;2023-03-14T08:49:34;11.19;67.60
77218;DHT22;66214;51.302;17.068;2023-03-14T08:52:22;11.19;67.47
77218;DHT22;66214;51.302;17.068;2023-03-14T08:55:02;11.20;67.55
77218;DHT22;66214;51.302;17.068;2023-03-14T08:57:56;11.23;67.56
77218;DHT22;66214;51.302;17.068;2023-03-14T09:00:31;11.28;67.79
77218;DHT22;66214;51.302;17.068;2023-03-14T09:03:21;11.32;67.90
77218;DHT22;66214;51.302;17.068;2023-03-14T09:05:54;11.35;68.06
77218;DHT22;66214;51.302;17.068;2023-03-14T09:08:36;11.40;68.16
77218;DHT22;66214;51.302;17.068;2023-03-14T09:11:29;11.48;68.14
77218;DHT22;66214;51.302;17.068;2023-03-14T09:14:37;11.59;68.19
77218;DHT22;66214;51.302;17.068;2023-03-14T09:17:05;11.70;68.17
77218;DHT22;66214;51.302;17.068;2023-03-14T09:19:56;11.78;67.86
77218;DHT22;66214;51.302;17.068;2023-03-14T09:22:57;11.85;67.52
77218;DHT22;66214;51.302;17.068;2023-03-14T09:25:32;11.85;67.44
77218;DHT22;66214;51.302;17.068;2023-03-14T09:28:10;11.86;67.26
77218;DHT22;66214;51.302;17.068;2023-03-14T09:30:38;11.89;67.22
77218;DHT22;66214;51.302;17.068;2023-03-14T09:33:07;11.90;67.28
77218;DHT22;66214;51.302;17.068;2023-03-14T09:35:35;11.95;67.24
77218;DHT22;66214;51.302;17.068;2023-03-14T09:38:03;12.02;67.11
77218;DHT22;66214;51.302;17.068;2023-03-14T09:40:36;12.15;66.98
77218;DHT22;66214;51.302;17.068;2023-03-14T09:43:09;12.24;66.89
77218;DHT22;66214;51.302;17.068;2023-03-14T09:46:01;12.31;66.57
77218;DHT22;66214;51.302;17.068;2023-03-14T09:48:32;12.34;66.28
77218;DHT22;66214;51.302;17.068;2023-03-14T09:51:12;12.38;66.33
77218;DHT22;66214;51.302;17.068;2023-03-14T10:05:07;12.39;66.40
77218;DHT22;66214;51.302;17.068;2023-03-14T10:16:47;12.62;66.70
77218;DHT22;66214;51.302;17.068;2023-03-14T10:19:29;12.70;66.61
77218;DHT22;66214;51.302;17.068;2023-03-14T10:22:12;12.72;66.10
77218;DHT22;66214;51.302;17.068;2023-03-14T10:24:54;12.71;66.12
77218;DHT22;66214;51.302;17.068;2023-03-14T10:27:58;12.71;66.21
77218;DHT22;66214;51.302;17.068;2023-03-14T10:30:37;12.73;66.11
77218;DHT22;66214;51.302;17.068;2023-03-14T10:33:19;12.76;65.91
77218;DHT22;66214;51.302;17.068;2023-03-14T10:36:01;12.85;65.90
77218;DHT22;66214;51.302;17.068;2023-03-14T10:38:37;13.01;65.97
77218;DHT22;66214;51.302;17.068;2023-03-14T10:41:24;13.14;65.36
77218;DHT22;66214;51.302;17.068;2023-03-14T10:43:57;13.30;65.23
77218;DHT22;66214;51.302;17.068;2023-03-14T10:46:29;13.49;64.80
77218;DHT22;66214;51.302;17.068;2023-03-14T10:49:03;13.65;64.27
77218;DHT22;66214;51.302;17.068;2023-03-14T10:55:51;14.02;63.27
77218;DHT22;66214;51.302;17.068;2023-03-14T10:58:23;14.20;63.66
77218;DHT22;66214;51.302;17.068;2023-03-14T11:10:39;15.36;62.37
77218;DHT22;66214;51.302;17.068;2023-03-14T11:28:46;15.49;59.59
77218;DHT22;66214;51.302;17.068;2023-03-14T11:31:31;16.08;58.41
77218;DHT22;66214;51.302;17.068;2023-03-14T11:40:21;17.86;54.90
77218;DHT22;66214;51.302;17.068;2023-03-14T11:46:16;16.89;54.44
77218;DHT22;66214;51.302;17.068;2023-03-14T11:51:39;16.08;56.56
77218;DHT22;66214;51.302;17.068;2023-03-14T11:54:20;15.99;56.94
77218;DHT22;66214;51.302;17.068;2023-03-14T11:57:04;15.78;57.16
77218;DHT22;66214;51.302;17.068;2023-03-14T12:14:14;16.88;53.81
77218;DHT22;66214;51.302;17.068;2023-03-14T12:23:01;16.65;54.24
77218;DHT22;66214;51.302;17.068;2023-03-14T12:29:09;16.40;54.32
77218;DHT22;66214;51.302;17.068;2023-03-14T12:32:44;16.27;55.49
77218;DHT22;66214;51.302;17.068;2023-03-14T12:38:57;15.97;56.18
77218;DHT22;66214;51.302;17.068;2023-03-14T12:44:47;15.58;56.76
77218;DHT22;66214;51.302;17.068;2023-03-14T12:49:57;15.40;56.96
77218;DHT22;66214;51.302;17.068;2023-03-14T13:05:21;15.58;57.61
77218;DHT22;66214;51.302;17.068;2023-03-14T13:08:35;15.51;57.51
77218;DHT22;66214;51.302;17.068;2023-03-14T13:11:19;15.43;57.35
77218;DHT22;66214;51.302;17.068;2023-03-14T13:16:52;15.07;57.85
77218;DHT22;66214;51.302;17.068;2023-03-14T13:19:25;14.89;58.35
77218;DHT22;66214;51.302;17.068;2023-03-14T13:25:37;14.85;59.46
77218;DHT22;66214;51.302;17.068;2023-03-14T13:28:10;14.80;59.88
77218;DHT22;66214;51.302;17.068;2023-03-14T13:31:30;14.72;60.18
77218;DHT22;66214;51.302;17.068;2023-03-14T13:34:35;14.56;60.44
77218;DHT22;66214;51.302;17.068;2023-03-14T13:37:38;14.49;60.61
77218;DHT22;66214;51.302;17.068;2023-03-14T13:40:28;14.50;60.70
77218;DHT22;66214;51.302;17.068;2023-03-14T13:43:16;14.52;60.67
77218;DHT22;66214;51.302;17.068;2023-03-14T13:46:04;14.58;60.88
77218;DHT22;66214;51.302;17.068;2023-03-14T13:49:34;14.61;60.90
77218;DHT22;66214;51.302;17.068;2023-03-14T13:55:34;14.54;60.87
77218;DHT22;66214;51.302;17.068;2023-03-14T14:04:40;14.29;61.29
77218;DHT22;66214;51.302;17.068;2023-03-14T14:09:39;14.22;61.45
77218;DHT22;66214;51.302;17.068;2023-03-14T14:17:51;14.14;61.85
77218;DHT22;66214;51.302;17.068;2023-03-14T14:23:29;14.00;62.10
77218;DHT22;66214;51.302;17.068;2023-03-14T14:26:03;13.90;62.48
77218;DHT22;66214;51.302;17.068;2023-03-14T14:28:40;13.91;62.53
77218;DHT22;66214;51.302;17.068;2023-03-14T14:33:58;13.96;62.59
77218;DHT22;66214;51.302;17.068;2023-03-14T14:39:05;13.79;62.81
77218;DHT22;66214;51.302;17.068;2023-03-14T14:41:49;13.67;62.95
77218;DHT22;66214;51.302;17.068;2023-03-14T14:44:28;13.59;63.13
77218;DHT22;66214;51.302;17.068;2023-03-14T14:47:11;13.54;63.23
77218;DHT22;66214;51.302;17.068;2023-03-14T14:49:43;13.50;63.47
77218;DHT22;66214;51.302;17.068;2023-03-14T14:52:22;13.45;63.64
77218;DHT22;66214;51.302;17.068;2023-03-14T14:55:19;13.41;63.96
77218;DHT22;66214;51.302;17.068;2023-03-14T14:57:52;13.42;64.31
77218;DHT22;66214;51.302;17.068;2023-03-14T15:00:23;13.42;64.51
77218;DHT22;66214;51.302;17.068;2023-03-14T15:02:59;13.38;64.75
77218;DHT22;66214;51.302;17.068;2023-03-14T15:08:57;13.31;64.74
77218;DHT22;66214;51.302;17.068;2023-03-14T15:11:44;13.32;64.63
77218;DHT22;66214;51.302;17.068;2023-03-14T15:14:31;13.33;64.44
77218;DHT22;66214;51.302;17.068;2023-03-14T15:17:00;13.36;64.36
77218;DHT22;66214;51.302;17.068;2023-03-14T15:19:32;13.36;64.50
77218;DHT22;66214;51.302;17.068;2023-03-14T15:22:08;13.37;64.48
77218;DHT22;66214;51.302;17.068;2023-03-14T15:29:10;13.36;64.81
77218;DHT22;66214;51.302;17.068;2023-03-14T15:31:45;13.32;64.98
77218;DHT22;66214;51.302;17.068;2023-03-14T15:34:19;13.30;65.14
77218;DHT22;66214;51.302;17.068;2023-03-14T15:36:55;13.29;65.23
77218;DHT22;66214;51.302;17.068;2023-03-14T15:39:23;13.30;65.26
77218;DHT22;66214;51.302;17.068;2023-03-14T15:41:51;13.34;65.22
77218;DHT22;66214;51.302;17.068;2023-03-14T15:44:19;13.36;65.18
77218;DHT22;66214;51.302;17.068;2023-03-14T15:46:47;13.37;65.02
77218;DHT22;66214;51.302;17.068;2023-03-14T15:49:29;13.36;64.98
77218;DHT22;66214;51.302;17.068;2023-03-14T15:52:08;13.34;65.04
77218;DHT22;66214;51.302;17.068;2023-03-14T15:54:57;13.31;65.02
77218;DHT22;66214;51.302;17.068;2023-03-14T16:00:25;13.25;64.99
77218;DHT22;66214;51.302;17.068;2023-03-14T16:03:03;13.22;65.05
77218;DHT22;66214;51.302;17.068;2023-03-14T16:05:46;13.22;65.15
77218;DHT22;66214;51.302;17.068;2023-03-14T16:08:22;13.20;65.29
77218;DHT22;66214;51.302;17.068;2023-03-14T16:10:59;13.22;65.52
77218;DHT22;66214;51.302;17.068;2023-03-14T16:13:33;13.22;65.44
77218;DHT22;66214;51.302;17.068;2023-03-14T16:16:11;13.18;65.39
77218;DHT22;66214;51.302;17.068;2023-03-14T16:18:42;13.15;65.42
77218;DHT22;66214;51.302;17.068;2023-03-14T16:21:17;13.08;65.49
77218;DHT22;66214;51.302;17.068;2023-03-14T16:23:50;13.03;65.48
77218;DHT22;66214;51.302;17.068;2023-03-14T16:26:23;12.98;65.48
77218;DHT22;66214;51.302;17.068;2023-03-14T16:28:59;12.92;65.39
77218;DHT22;66214;51.302;17.068;2023-03-14T16:31:30;12.87;65.35
77218;DHT22;66214;51.302;17.068;2023-03-14T16:34:02;12.84;65.35
77218;DHT22;66214;51.302;17.068;2023-03-14T16:36:33;12.80;65.47
77218;DHT22;66214;51.302;17.068;2023-03-14T16:39:07;12.76;65.53
77218;DHT22;66214;51.302;17.068;2023-03-14T16:41:39;12.70;65.61
77218;DHT22;66214;51.302;17.068;2023-03-14T16:44:27;12.68;65.62
77218;DHT22;66214;51.302;17.068;2023-03-14T16:46:58;12.63;65.72
77218;DHT22;66214;51.302;17.068;2023-03-14T16:49:33;12.62;65.71
77218;DHT22;66214;51.302;17.068;2023-03-14T16:52:55;12.61;65.80
77218;DHT22;66214;51.302;17.068;2023-03-14T16:55:33;12.60;65.95
77218;DHT22;66214;51.302;17.068;2023-03-14T16:58:01;12.60;65.95
77218;DHT22;66214;51.302;17.068;2023-03-14T17:00:33;12.57;65.95
77218;DHT22;66214;51.302;17.068;2023-03-14T17:03:02;12.54;66.03
77218;DHT22;66214;51.302;17.068;2023-03-14T17:05:32;12.51;66.09
77218;DHT22;66214;51.302;17.068;2023-03-14T17:08:08;12.47;66.14
77218;DHT22;66214;51.302;17.068;2023-03-14T17:10:52;12.44;66.08
77218;DHT22;66214;51.302;17.068;2023-03-14T17:13:40;12.42;66.00
77218;DHT22;66214;51.302;17.068;2023-03-14T17:16:24;12.38;66.00
77218;DHT22;66214;51.302;17.068;2023-03-14T17:18:53;12.33;65.92
77218;DHT22;66214;51.302;17.068;2023-03-14T17:21:27;12.30;65.95
77218;DHT22;66214;51.302;17.068;2023-03-14T17:24:01;12.24;65.91
77218;DHT22;66214;51.302;17.068;2023-03-14T17:27:10;12.16;66.01
77218;DHT22;66214;51.302;17.068;2023-03-14T17:29:41;12.11;66.15
77218;DHT22;66214;51.302;17.068;2023-03-14T17:32:19;12.07;66.40
77218;DHT22;66214;51.302;17.068;2023-03-14T17:34:55;12.08;66.42
77218;DHT22;66214;51.302;17.068;2023-03-14T17:37:23;12.08;66.68
77218;DHT22;66214;51.302;17.068;2023-03-14T17:39:54;12.10;66.73
77218;DHT22;66214;51.302;17.068;2023-03-14T17:42:25;12.09;66.75
77218;DHT22;66214;51.302;17.068;2023-03-14T17:45:00;12.07;66.65
77218;DHT22;66214;51.302;17.068;2023-03-14T17:47:40;12.05;66.64
77218;DHT22;66214;51.302;17.068;2023-03-14T17:50:12;12.04;66.67
77218;DHT22;66214;51.302;17.068;2023-03-14T17:52:41;12.02;66.79
77218;DHT22;66214;51.302;17.068;2023-03-14T17:55:13;12.00;66.85
77218;DHT22;66214;51.302;17.068;2023-03-14T17:58:02;11.97;66.95
77218;DHT22;66214;51.302;17.068;2023-03-14T18:00:33;11.92;67.01
77218;DHT22;66214;51.302;17.068;2023-03-14T18:03:09;11.86;67.09
77218;DHT22;66214;51.302;17.068;2023-03-14T18:05:48;11.81;67.36
77218;DHT22;66214;51.302;17.068;2023-03-14T18:08:30;11.75;67.73
77218;DHT22;66214;51.302;17.068;2023-03-14T18:11:10;11.75;67.94
77218;DHT22;66214;51.302;17.068;2023-03-14T18:13:40;11.74;68.06
77218;DHT22;66214;51.302;17.068;2023-03-14T18:16:17;11.75;68.17
77218;DHT22;66214;51.302;17.068;2023-03-14T18:18:53;11.72;68.14
77218;DHT22;66214;51.302;17.068;2023-03-14T18:21:28;11.70;68.08
77218;DHT22;66214;51.302;17.068;2023-03-14T18:24:00;11.68;68.04
77218;DHT22;66214;51.302;17.068;2023-03-14T18:26:35;11.64;68.01
77218;DHT22;66214;51.302;17.068;2023-03-14T18:29:16;11.58;68.19
77218;DHT22;66214;51.302;17.068;2023-03-14T18:31:46;11.55;68.29
77218;DHT22;66214;51.302;17.068;2023-03-14T18:34:17;11.51;68.30
77218;DHT22;66214;51.302;17.068;2023-03-14T18:36:48;11.46;68.47
77218;DHT22;66214;51.302;17.068;2023-03-14T18:39:22;11.44;68.57
77218;DHT22;66214;51.302;17.068;2023-03-14T18:41:57;11.41;68.67
77218;DHT22;66214;51.302;17.068;2023-03-14T18:44:30;11.40;68.84
77218;DHT22;66214;51.302;17.068;2023-03-14T18:47:19;11.38;69.02
77218;DHT22;66214;51.302;17.068;2023-03-14T18:50:00;11.37;69.01
77218;DHT22;66214;51.302;17.068;2023-03-14T18:52:29;11.35;68.99
77218;DHT22;66214;51.302;17.068;2023-03-14T18:57:27;11.27;68.95
77218;DHT22;66214;51.302;17.068;2023-03-14T19:00:25;11.22;69.00
77218;DHT22;66214;51.302;17.068;2023-03-14T19:03:08;11.15;69.15
77218;DHT22;66214;51.302;17.068;2023-03-14T19:05:43;11.07;69.40
77218;DHT22;66214;51.302;17.068;2023-03-14T19:08:43;11.01;69.29
77218;DHT22;66214;51.302;17.068;2023-03-14T19:11:36;10.93;69.57
77218;DHT22;66214;51.302;17.068;2023-03-14T19:14:04;10.86;69.56
77218;DHT22;66214;51.302;17.068;2023-03-14T19:16:35;10.82;70.07
77218;DHT22;66214;51.302;17.068;2023-03-14T19:19:07;10.81;70.23
77218;DHT22;66214;51.302;17.068;2023-03-14T19:21:35;10.79;70.30
77218;DHT22;66214;51.302;17.068;2023-03-14T19:24:11;10.77;70.30
77218;DHT22;66214;51.302;17.068;2023-03-14T19:26:55;10.75;70.46